createdAt,value
2023-08-17T00:00:23.810Z,100.00
2023-08-17T00:02:50.615Z,100.00
2023-08-17T00:05:17.177Z,100.00
2023-08-17T00:07:43.665Z,100.00
2023-08-17T00:10:10.629Z,100.00
2023-08-17T00:12:37.125Z,100.00
2023-08-17T00:15:04.021Z,100.00
2023-08-17T00:17:31.310Z,100.00
2023-08-17T00:19:57.977Z,100.00
2023-08-17T00:22:24.616Z,100.00
2023-08-17T00:24:51.126Z,100.00
2023-08-17T00:27:17.648Z,100.00
2023-08-17T00:29:44.362Z,100.00
2023-08-17T00:32:10.886Z,100.00
2023-08-17T00:34:37.337Z,100.00
2023-08-17T00:37:04.214Z,100.00
2023-08-17T00:39:30.703Z,100.00
2023-08-17T00:41:57.203Z,100.00
2023-08-17T00:44:23.713Z,100.00
2023-08-17T00:46:50.276Z,100.00
2023-08-17T00:49:16.866Z,100.00
2023-08-17T00:51:43.317Z,100.00
2023-08-17T00:54:11.274Z,100.00
2023-08-17T00:56:38.219Z,100.00
2023-08-17T00:59:05.488Z,100.00
2023-08-17T01:01:32.156Z,100.00
2023-08-17T01:03:58.871Z,100.00
2023-08-17T01:06:25.360Z,100.00
2023-08-17T01:08:51.823Z,100.00
2023-08-17T01:11:37.294Z,100.00
2023-08-17T01:14:11.033Z,100.00
2023-08-17T01:16:47.046Z,100.00
2023-08-17T01:19:18.227Z,100.00
2023-08-17T01:21:51.377Z,100.00
2023-08-17T01:24:17.943Z,100.00
2023-08-17T01:26:44.388Z,100.00
2023-08-17T01:29:10.927Z,100.00
2023-08-17T01:32:06.016Z,100.00
2023-08-17T01:34:35.517Z,100.00
2023-08-17T01:37:07.298Z,100.00
2023-08-17T01:39:45.280Z,100.00
2023-08-17T01:42:14.073Z,100.00
2023-08-17T01:44:41.036Z,100.00
2023-08-17T01:47:07.643Z,100.00
2023-08-17T01:49:34.235Z,100.00
2023-08-17T01:52:01.977Z,100.00
2023-08-17T01:54:28.544Z,100.00
2023-08-17T01:56:55.104Z,100.00
2023-08-17T01:59:21.657Z,100.00
2023-08-17T02:01:48.141Z,100.00
2023-08-17T02:04:15.618Z,100.00
2023-08-17T02:06:42.113Z,100.00
2023-08-17T02:09:08.562Z,100.00
2023-08-17T02:11:35.045Z,100.00
2023-08-17T02:14:01.508Z,100.00
2023-08-17T02:16:28.013Z,100.00
2023-08-17T02:18:54.570Z,100.00
2023-08-17T02:21:21.087Z,100.00
2023-08-17T02:23:47.660Z,100.00
2023-08-17T02:26:14.200Z,100.00
2023-08-17T02:28:40.722Z,100.00
2023-08-17T02:31:07.639Z,100.00
2023-08-17T02:33:34.791Z,100.00
2023-08-17T02:36:02.500Z,100.00
2023-08-17T02:38:29.096Z,100.00
2023-08-17T02:40:55.611Z,100.00
2023-08-17T02:43:22.108Z,100.00
2023-08-17T02:45:48.595Z,100.00
2023-08-17T02:48:15.046Z,100.00
2023-08-17T02:50:41.580Z,100.00
2023-08-17T02:53:08.075Z,100.00
2023-08-17T02:55:34.796Z,100.00
2023-08-17T02:58:01.282Z,100.00
2023-08-17T03:00:27.798Z,100.00
2023-08-17T03:02:55.115Z,100.00
2023-08-17T03:05:21.750Z,100.00
2023-08-17T03:07:48.209Z,100.00
2023-08-17T03:10:14.974Z,100.00
2023-08-17T03:12:41.508Z,100.00
2023-08-17T03:15:08.148Z,100.00
2023-08-17T03:17:34.743Z,100.00
2023-08-17T03:20:01.312Z,100.00
2023-08-17T03:22:28.065Z,100.00
2023-08-17T03:24:56.618Z,100.00
2023-08-17T03:27:23.575Z,100.00
2023-08-17T03:29:50.287Z,100.00
2023-08-17T03:32:16.779Z,100.00
2023-08-17T03:34:43.298Z,100.00
2023-08-17T03:37:09.741Z,100.00
2023-08-17T03:39:36.287Z,100.00
2023-08-17T03:42:02.972Z,100.00
2023-08-17T03:44:29.413Z,100.00
2023-08-17T03:46:55.919Z,100.00
2023-08-17T03:49:22.784Z,100.00
2023-08-17T03:51:49.253Z,100.00
2023-08-17T03:54:15.734Z,100.00
2023-08-17T03:56:42.210Z,100.00
2023-08-17T03:59:08.672Z,100.00
2023-08-17T04:01:35.172Z,100.00
2023-08-17T04:04:01.641Z,100.00
2023-08-17T04:06:28.103Z,100.00
2023-08-17T04:08:54.575Z,100.00
2023-08-17T04:11:21.020Z,100.00
2023-08-17T04:13:47.471Z,100.00
2023-08-17T04:16:14.034Z,100.00
2023-08-17T04:18:40.659Z,100.00
2023-08-17T04:21:07.227Z,100.00
2023-08-17T04:23:33.694Z,100.00
2023-08-17T04:26:00.184Z,100.00
2023-08-17T04:28:26.681Z,100.00
2023-08-17T04:30:53.181Z,100.00
2023-08-17T04:33:19.728Z,100.00
2023-08-17T04:35:49.356Z,100.00
2023-08-17T04:38:15.841Z,100.00
2023-08-17T04:40:42.650Z,100.00
2023-08-17T04:43:10.992Z,100.00
2023-08-17T04:45:38.178Z,100.00
2023-08-17T04:48:05.621Z,100.00
2023-08-17T04:50:32.111Z,100.00
2023-08-17T04:52:58.668Z,100.00
2023-08-17T04:55:25.177Z,100.00
2023-08-17T04:57:51.604Z,100.00
2023-08-17T05:00:18.750Z,100.00
2023-08-17T05:02:45.457Z,100.00
2023-08-17T05:05:12.059Z,100.00
2023-08-17T05:07:38.554Z,100.00
2023-08-17T05:10:05.287Z,100.00
2023-08-17T05:12:31.815Z,100.00
2023-08-17T05:14:58.320Z,100.00
2023-08-17T05:17:25.057Z,100.00
2023-08-17T05:19:52.619Z,100.00
2023-08-17T05:22:19.205Z,100.00
2023-08-17T05:24:45.680Z,100.00
2023-08-17T05:27:12.227Z,100.00
2023-08-17T05:29:38.799Z,100.00
2023-08-17T05:32:05.730Z,100.00
2023-08-17T05:34:32.317Z,100.00
2023-08-17T05:36:58.933Z,100.00
2023-08-17T05:39:25.793Z,100.00
2023-08-17T05:41:52.396Z,100.00
2023-08-17T05:44:19.154Z,100.00
2023-08-17T05:46:45.765Z,100.00
2023-08-17T05:49:12.292Z,100.00
2023-08-17T05:51:38.856Z,100.00
2023-08-17T05:54:05.612Z,100.00
2023-08-17T05:56:32.544Z,100.00
2023-08-17T05:58:59.060Z,100.00
2023-08-17T06:01:25.578Z,100.00
2023-08-17T06:03:52.100Z,100.00
2023-08-17T06:06:18.572Z,100.00
2023-08-17T06:08:45.170Z,100.00
2023-08-17T06:11:11.650Z,99.13
2023-08-17T06:13:38.154Z,95.88
2023-08-17T06:16:04.905Z,95.18
2023-08-17T06:18:32.030Z,97.22
2023-08-17T06:20:58.491Z,96.20
2023-08-17T06:23:25.206Z,91.33
2023-08-17T06:25:51.942Z,91.53
2023-08-17T06:28:18.458Z,92.74
2023-08-17T06:30:44.945Z,89.33
2023-08-17T06:33:11.409Z,91.64
2023-08-17T06:35:37.896Z,90.59
2023-08-17T06:38:04.576Z,90.76
2023-08-17T06:40:31.144Z,89.01
2023-08-17T06:42:57.652Z,89.11
2023-08-17T06:45:24.200Z,87.53
2023-08-17T06:47:50.866Z,84.60
2023-08-17T06:50:17.483Z,88.09
2023-08-17T06:52:44.109Z,87.98
2023-08-17T06:55:11.594Z,86.11
2023-08-17T06:57:38.162Z,82.93
2023-08-17T07:00:08.722Z,83.09
2023-08-17T07:02:50.967Z,81.27
2023-08-17T07:05:20.457Z,79.72
2023-08-17T07:07:47.103Z,79.82
2023-08-17T07:10:13.592Z,78.50
2023-08-17T07:12:40.771Z,77.59
2023-08-17T07:15:08.634Z,75.79
2023-08-17T07:17:35.605Z,75.16
2023-08-17T07:22:32.081Z,71.64
2023-08-17T07:24:58.733Z,72.15
2023-08-17T07:27:25.776Z,72.03
2023-08-17T07:29:52.648Z,72.69
2023-08-17T07:32:20.108Z,74.44
2023-08-17T07:34:46.608Z,75.00
2023-08-17T07:37:15.689Z,75.11
2023-08-17T07:39:42.927Z,75.38
2023-08-17T07:42:09.802Z,76.02
2023-08-17T07:44:36.737Z,75.16
2023-08-17T07:47:03.380Z,76.09
2023-08-17T07:49:32.557Z,76.92
2023-08-17T07:51:59.461Z,75.01
2023-08-17T07:54:26.042Z,75.90
2023-08-17T07:56:52.568Z,76.11
2023-08-17T07:59:19.012Z,75.88
2023-08-17T08:01:45.607Z,74.69
2023-08-17T08:04:12.259Z,72.82
2023-08-17T08:06:38.785Z,73.74
2023-08-17T08:09:05.470Z,72.53
2023-08-17T08:11:31.981Z,69.69
2023-08-17T08:13:58.769Z,71.40
2023-08-17T08:16:25.325Z,73.80
2023-08-17T08:18:51.774Z,74.86
2023-08-17T08:21:18.285Z,75.76
2023-08-17T08:23:44.682Z,73.57
2023-08-17T08:26:11.192Z,73.65
2023-08-17T08:28:37.729Z,74.03
2023-08-17T08:31:04.906Z,73.38
2023-08-17T08:33:32.069Z,72.96
2023-08-17T08:35:58.530Z,71.78
2023-08-17T08:38:25.490Z,70.88
2023-08-17T08:40:52.356Z,69.39
2023-08-17T08:43:19.213Z,69.77
2023-08-17T08:45:46.846Z,69.27
2023-08-17T08:48:15.410Z,69.66
2023-08-17T08:50:42.602Z,71.05
2023-08-17T08:53:15.775Z,73.34
2023-08-17T08:55:53.063Z,72.09
2023-08-17T08:58:20.224Z,67.79
2023-08-17T09:00:48.600Z,69.20
2023-08-17T09:03:19.319Z,71.18
2023-08-17T09:05:50.842Z,70.20
2023-08-17T09:08:22.355Z,71.53
2023-08-17T09:10:51.864Z,72.19
2023-08-17T09:13:18.441Z,72.14
2023-08-17T09:15:44.965Z,70.59
2023-08-17T09:18:13.748Z,69.39
2023-08-17T09:20:47.293Z,66.51
2023-08-17T09:23:17.944Z,63.62
2023-08-17T09:25:46.275Z,63.60
2023-08-17T09:28:15.686Z,67.43
2023-08-17T09:30:56.482Z,64.77
2023-08-17T09:33:27.827Z,67.34
2023-08-17T09:35:59.461Z,65.91
2023-08-17T09:38:28.437Z,66.57
2023-08-17T09:40:55.733Z,67.39
2023-08-17T09:43:22.432Z,66.12
2023-08-17T09:45:51.086Z,66.74
2023-08-17T09:48:18.839Z,67.48
2023-08-17T09:50:47.240Z,65.49
2023-08-17T09:53:20.264Z,65.02
2023-08-17T09:55:47.546Z,64.80
2023-08-17T09:58:17.581Z,65.48
2023-08-17T10:00:50.446Z,67.13
2023-08-17T10:03:19.540Z,66.98
2023-08-17T10:05:55.688Z,68.59
2023-08-17T10:08:24.212Z,70.51
2023-08-17T10:10:56.610Z,70.37
2023-08-17T10:13:36.235Z,67.44
2023-08-17T10:16:30.189Z,66.45
2023-08-17T10:19:24.057Z,66.36
2023-08-17T10:22:30.567Z,64.02
2023-08-17T10:25:00.414Z,66.93
2023-08-17T10:27:27.901Z,67.17
2023-08-17T10:29:54.992Z,66.88
2023-08-17T10:32:23.370Z,63.76
2023-08-17T10:34:52.215Z,64.51
2023-08-17T10:37:20.201Z,64.41
2023-08-17T10:39:48.100Z,64.37
2023-08-17T10:44:49.173Z,62.72
2023-08-17T10:47:26.009Z,62.58
2023-08-17T10:50:00.646Z,62.38
2023-08-17T10:52:38.408Z,60.62
2023-08-17T10:55:11.110Z,60.31
2023-08-17T10:57:40.045Z,59.48
2023-08-17T11:00:33.054Z,60.70
2023-08-17T11:03:12.340Z,59.88
2023-08-17T11:05:43.419Z,61.00
2023-08-17T11:08:14.877Z,61.02
2023-08-17T11:10:41.569Z,60.91
2023-08-17T11:13:08.479Z,59.23
2023-08-17T11:15:39.045Z,58.89
2023-08-17T11:18:09.910Z,57.38
2023-08-17T11:20:39.357Z,57.60
2023-08-17T11:23:10.129Z,58.41
2023-08-17T11:25:38.512Z,59.16
2023-08-17T11:28:08.141Z,59.56
2023-08-17T11:30:36.755Z,60.06
2023-08-17T11:33:03.735Z,59.75
2023-08-17T11:35:30.197Z,60.03
2023-08-17T11:37:56.626Z,60.13
2023-08-17T11:40:23.444Z,59.31
2023-08-17T11:42:50.247Z,60.53
2023-08-17T11:45:16.910Z,59.03
2023-08-17T11:47:44.586Z,59.08
2023-08-17T11:50:20.579Z,58.98
2023-08-17T11:52:48.368Z,59.73
2023-08-17T11:55:19.064Z,57.86
2023-08-17T11:57:46.080Z,59.11
2023-08-17T12:00:22.669Z,57.16
2023-08-17T12:02:50.396Z,58.22
2023-08-17T12:05:22.868Z,57.41
2023-08-17T12:07:49.437Z,57.05
2023-08-17T12:10:16.154Z,57.21
2023-08-17T12:12:42.775Z,59.11
2023-08-17T12:15:12.889Z,59.97
2023-08-17T12:17:46.373Z,61.11
2023-08-17T12:20:22.345Z,60.74
2023-08-17T12:22:49.093Z,59.79
2023-08-17T12:25:16.369Z,57.30
2023-08-17T12:27:43.090Z,57.46
2023-08-17T12:30:27.959Z,56.47
2023-08-17T12:32:56.008Z,57.08
2023-08-17T12:35:25.559Z,58.63
2023-08-17T12:37:53.922Z,57.35
2023-08-17T12:40:21.268Z,56.08
2023-08-17T12:42:48.361Z,56.63
2023-08-17T12:45:16.167Z,55.39
2023-08-17T12:47:42.978Z,56.11
2023-08-17T12:50:09.864Z,57.57
2023-08-17T12:52:36.557Z,59.61
2023-08-17T12:55:03.264Z,58.57
2023-08-17T12:57:29.786Z,59.85
2023-08-17T12:59:56.293Z,59.73
2023-08-17T13:02:22.859Z,59.19
2023-08-17T13:04:49.402Z,59.23
2023-08-17T13:07:16.890Z,58.79
2023-08-17T13:09:43.411Z,58.59
2023-08-17T13:12:09.893Z,57.89
2023-08-17T13:14:37.056Z,57.61
2023-08-17T13:17:03.793Z,57.26
2023-08-17T13:19:30.366Z,57.88
2023-08-17T13:21:56.874Z,59.49
2023-08-17T13:24:23.373Z,60.23
2023-08-17T13:26:53.799Z,61.21
2023-08-17T13:29:20.963Z,59.83
2023-08-17T13:31:49.131Z,58.06
2023-08-17T13:34:15.798Z,56.59
2023-08-17T13:36:42.522Z,56.28
2023-08-17T13:39:09.052Z,57.77
2023-08-17T13:41:35.605Z,58.53
2023-08-17T13:44:03.608Z,60.84
2023-08-17T13:46:31.256Z,61.88
2023-08-17T13:48:57.777Z,63.29
2023-08-17T13:51:24.238Z,62.38
2023-08-17T13:53:50.739Z,61.55
2023-08-17T13:56:18.304Z,62.26
2023-08-17T13:58:44.770Z,62.77
2023-08-17T14:01:12.805Z,63.05
2023-08-17T14:03:39.504Z,63.08
2023-08-17T14:06:06.150Z,63.92
2023-08-17T14:08:32.584Z,65.22
2023-08-17T14:10:59.067Z,65.04
2023-08-17T14:13:25.536Z,64.37
2023-08-17T14:15:52.119Z,64.21
2023-08-17T14:18:18.878Z,64.71
2023-08-17T14:20:45.458Z,65.95
2023-08-17T14:23:11.956Z,66.39
2023-08-17T14:25:38.442Z,65.33
2023-08-17T14:28:06.507Z,65.03
2023-08-17T14:30:33.044Z,66.36
2023-08-17T14:33:01.588Z,67.08
2023-08-17T14:35:28.990Z,67.82
2023-08-17T14:37:58.780Z,68.18
2023-08-17T14:40:25.459Z,67.86
2023-08-17T14:42:54.625Z,68.06
2023-08-17T14:45:21.422Z,68.10
2023-08-17T14:47:47.930Z,67.59
2023-08-17T14:50:15.192Z,68.81
2023-08-17T14:52:42.180Z,69.41
2023-08-17T14:55:10.220Z,70.06
2023-08-17T14:57:36.969Z,71.13
2023-08-17T15:00:05.211Z,70.51
2023-08-17T15:02:31.914Z,73.24
2023-08-17T15:04:58.429Z,72.61
2023-08-17T15:07:25.464Z,72.24
2023-08-17T15:09:53.956Z,71.32
2023-08-17T15:12:22.741Z,70.12
2023-08-17T15:14:50.694Z,70.01
2023-08-17T15:17:17.086Z,70.01
2023-08-17T15:19:43.585Z,70.41
2023-08-17T15:22:15.534Z,70.82
2023-08-17T15:24:44.440Z,72.23
2023-08-17T15:27:11.143Z,73.12
2023-08-17T15:29:37.613Z,73.93
2023-08-17T15:32:04.188Z,73.38
2023-08-17T15:34:30.710Z,74.72
2023-08-17T15:36:57.217Z,73.96
2023-08-17T15:39:23.727Z,72.96
2023-08-17T15:41:50.239Z,73.25
2023-08-17T15:44:16.914Z,73.87
2023-08-17T15:46:43.485Z,76.09
2023-08-17T15:49:10.066Z,76.19
2023-08-17T15:51:36.642Z,75.76
2023-08-17T15:54:03.238Z,77.58
2023-08-17T15:56:29.787Z,76.71
2023-08-17T15:58:56.328Z,77.29
2023-08-17T16:01:22.871Z,77.22
2023-08-17T16:03:49.567Z,77.27
2023-08-17T16:06:16.158Z,77.60
2023-08-17T16:08:49.094Z,76.56
2023-08-17T16:11:16.086Z,78.12
2023-08-17T16:16:12.245Z,79.18
2023-08-17T16:18:38.735Z,79.58
2023-08-17T16:21:13.854Z,81.30
2023-08-17T16:23:42.364Z,81.94
2023-08-17T16:26:09.177Z,82.25
2023-08-17T16:28:35.655Z,81.80
2023-08-17T16:31:05.258Z,83.42
2023-08-17T16:33:32.598Z,82.43
2023-08-17T16:35:59.554Z,82.17
2023-08-17T16:38:26.104Z,81.91
2023-08-17T16:40:52.686Z,83.76
2023-08-17T16:43:21.203Z,82.31
2023-08-17T16:45:47.987Z,83.31
2023-08-17T16:48:14.733Z,83.83
2023-08-17T16:50:41.292Z,82.84
2023-08-17T16:53:07.847Z,83.70
2023-08-17T16:55:35.156Z,84.15
2023-08-17T16:58:02.152Z,84.29
2023-08-17T17:00:28.853Z,84.90
2023-08-17T17:02:55.370Z,85.75
2023-08-17T17:05:21.953Z,85.91
2023-08-17T17:07:48.543Z,86.79
2023-08-17T17:10:16.474Z,86.44
2023-08-17T17:12:42.971Z,86.58
2023-08-17T17:15:09.940Z,86.90
2023-08-17T17:17:36.565Z,88.73
2023-08-17T17:20:04.660Z,88.07
2023-08-17T17:22:31.213Z,89.28
2023-08-17T17:24:57.673Z,88.63
2023-08-17T17:27:24.202Z,88.89
2023-08-17T17:29:50.671Z,91.30
2023-08-17T17:32:17.119Z,90.08
2023-08-17T17:34:43.587Z,89.61
2023-08-17T17:37:10.074Z,90.30
2023-08-17T17:39:36.602Z,91.90
2023-08-17T17:42:03.205Z,91.56
2023-08-17T17:44:29.802Z,92.76
2023-08-17T17:46:56.350Z,92.72
2023-08-17T17:49:23.177Z,91.81
2023-08-17T17:51:49.945Z,91.27
2023-08-17T17:54:16.513Z,93.83
2023-08-17T17:56:44.918Z,94.49
2023-08-17T17:59:11.912Z,94.04
2023-08-17T18:01:38.998Z,94.66
2023-08-17T18:04:05.916Z,94.84
2023-08-17T18:06:33.728Z,94.91
2023-08-17T18:09:00.217Z,94.20
2023-08-17T18:11:26.988Z,93.82
2023-08-17T18:13:53.644Z,94.51
2023-08-17T18:16:20.275Z,93.49
2023-08-17T18:18:47.006Z,95.86
2023-08-17T18:21:13.481Z,95.43
2023-08-17T18:23:39.958Z,97.15
2023-08-17T18:26:06.441Z,95.57
2023-08-17T18:28:33.054Z,98.24
2023-08-17T18:30:59.903Z,98.23
2023-08-17T18:33:26.429Z,98.39
2023-08-17T18:35:54.038Z,98.15
2023-08-17T18:38:23.297Z,99.21
2023-08-17T18:40:52.279Z,98.29
2023-08-17T18:43:20.618Z,99.09
2023-08-17T18:45:47.252Z,98.87
2023-08-17T18:48:13.889Z,99.97
2023-08-17T18:50:40.554Z,100.00
2023-08-17T18:53:08.100Z,97.68
2023-08-17T18:55:34.713Z,99.80
2023-08-17T18:58:01.786Z,100.00
2023-08-17T19:00:28.611Z,100.00
2023-08-17T19:02:55.262Z,99.59
2023-08-17T19:05:22.164Z,100.00
2023-08-17T19:07:49.101Z,100.00
2023-08-17T19:10:16.495Z,100.00
2023-08-17T19:12:43.136Z,100.00
2023-08-17T19:15:10.355Z,100.00
2023-08-17T19:17:37.290Z,100.00
2023-08-17T19:20:04.245Z,100.00
2023-08-17T19:22:30.997Z,100.00
2023-08-17T19:24:57.634Z,100.00
2023-08-17T19:27:24.473Z,100.00
2023-08-17T19:29:51.188Z,100.00
2023-08-17T19:32:17.864Z,100.00
2023-08-17T19:34:44.676Z,100.00
2023-08-17T19:37:11.437Z,100.00
2023-08-17T19:39:38.178Z,100.00
2023-08-17T19:42:05.064Z,100.00
2023-08-17T19:44:31.772Z,100.00
2023-08-17T19:46:58.352Z,100.00
2023-08-17T19:49:28.141Z,100.00
2023-08-17T19:51:55.332Z,100.00
2023-08-17T19:54:21.928Z,100.00
2023-08-17T19:56:49.016Z,100.00
2023-08-17T19:59:15.454Z,100.00
2023-08-17T20:01:41.990Z,100.00
2023-08-17T20:04:11.945Z,100.00
2023-08-17T20:06:38.596Z,100.00
2023-08-17T20:09:05.575Z,100.00
2023-08-17T20:11:32.163Z,100.00
2023-08-17T20:13:58.832Z,100.00
2023-08-17T20:16:25.479Z,100.00
2023-08-17T20:18:52.396Z,100.00
2023-08-17T20:21:19.045Z,100.00
2023-08-17T20:23:45.793Z,100.00
2023-08-17T20:26:12.684Z,100.00
2023-08-17T20:28:40.062Z,100.00
2023-08-17T20:31:07.508Z,100.00
2023-08-17T20:33:34.267Z,100.00
2023-08-17T20:36:00.857Z,100.00
2023-08-17T20:38:27.629Z,100.00
2023-08-17T20:40:54.541Z,100.00
2023-08-17T20:43:21.100Z,100.00
2023-08-17T20:45:47.815Z,100.00
2023-08-17T20:48:14.593Z,100.00
2023-08-17T20:50:43.397Z,100.00
2023-08-17T20:53:09.904Z,100.00
2023-08-17T20:55:39.278Z,100.00
2023-08-17T20:58:06.015Z,100.00
2023-08-17T21:00:33.750Z,100.00
2023-08-17T21:03:00.283Z,100.00
2023-08-17T21:05:28.768Z,100.00
2023-08-17T21:07:56.334Z,100.00
2023-08-17T21:10:24.486Z,100.00
2023-08-17T21:12:51.420Z,100.00
2023-08-17T21:15:17.957Z,100.00
2023-08-17T21:17:45.940Z,100.00
2023-08-17T21:20:12.890Z,100.00
2023-08-17T21:22:51.533Z,100.00
2023-08-17T21:25:19.247Z,100.00
2023-08-17T21:27:45.809Z,100.00
2023-08-17T21:30:12.404Z,100.00
2023-08-17T21:32:38.966Z,100.00
2023-08-17T21:35:06.373Z,100.00
2023-08-17T21:37:33.104Z,100.00
2023-08-17T21:39:59.688Z,100.00
2023-08-17T21:42:26.331Z,100.00
2023-08-17T21:44:52.826Z,100.00
2023-08-17T21:47:19.460Z,100.00
2023-08-17T21:49:48.034Z,100.00
2023-08-17T21:52:16.467Z,100.00
2023-08-17T21:54:43.191Z,100.00
2023-08-17T21:57:09.684Z,100.00
2023-08-17T21:59:36.148Z,100.00
2023-08-17T22:02:03.403Z,100.00
2023-08-17T22:04:33.396Z,99.62
2023-08-17T22:07:02.536Z,99.58
2023-08-17T22:09:29.760Z,99.79
2023-08-17T22:11:57.063Z,99.63
2023-08-17T22:14:23.655Z,99.12
2023-08-17T22:16:50.476Z,98.51
2023-08-17T22:19:17.359Z,98.29
2023-08-17T22:21:43.852Z,98.45
2023-08-17T22:24:10.895Z,98.02
2023-08-17T22:26:37.497Z,97.33
2023-08-17T22:29:04.554Z,96.96
2023-08-17T22:31:32.015Z,96.56
2023-08-17T22:33:58.495Z,96.56
2023-08-17T22:36:25.254Z,96.56
2023-08-17T22:38:51.933Z,96.72
2023-08-17T22:41:18.385Z,96.32
2023-08-17T22:43:44.906Z,96.37
2023-08-17T22:46:11.571Z,96.75
2023-08-17T22:48:38.109Z,96.64
2023-08-17T22:51:04.568Z,96.69
2023-08-17T22:53:31.099Z,97.32
2023-08-17T22:55:57.823Z,97.71
2023-08-17T22:58:24.267Z,97.75
2023-08-17T23:00:50.773Z,97.32
2023-08-17T23:03:17.389Z,96.73
2023-08-17T23:05:44.667Z,97.56
2023-08-17T23:08:11.174Z,97.59
2023-08-17T23:10:37.941Z,97.68
2023-08-17T23:13:04.608Z,97.58
2023-08-17T23:15:31.090Z,97.68
2023-08-17T23:17:57.604Z,97.28
2023-08-17T23:20:24.146Z,97.93
2023-08-17T23:22:50.642Z,97.60
2023-08-17T23:25:17.396Z,97.86
2023-08-17T23:27:43.992Z,98.28
2023-08-17T23:30:11.323Z,98.25
2023-08-17T23:32:38.118Z,98.03
2023-08-17T23:35:05.290Z,98.54
2023-08-17T23:37:32.073Z,98.87
2023-08-17T23:39:58.742Z,99.10
2023-08-17T23:42:25.210Z,99.22
2023-08-17T23:44:51.648Z,99.58
2023-08-17T23:47:18.191Z,99.88
2023-08-17T23:49:45.574Z,99.66
2023-08-17T23:52:12.426Z,99.99
2023-08-17T23:54:39.139Z,100.00
2023-08-17T23:57:05.838Z,98.90
2023-08-17T23:59:32.322Z,100.00
